sensor_id;sensor_type;location;lat;lon;timestamp;pressure;altitude;pressure_sealevel;temperature;humidity
8253;BME280;61313;48.396;10.008;2023-03-03T00:01:29;96306.22;;;4.52;64.17
8253;BME280;61313;48.396;10.008;2023-03-03T00:03:56;96300.56;;;4.31;64.27
8253;BME280;61313;48.396;10.008;2023-03-03T00:06:22;96301.22;;;4.42;64.29
8253;BME280;61313;48.396;10.008;2023-03-03T00:08:49;96294.84;;;4.56;64.35
8253;BME280;61313;48.396;10.008;2023-03-03T00:11:14;96300.09;;;4.53;64.06
8253;BME280;61313;48.396;10.008;2023-03-03T00:13:49;96299.25;;;4.54;64.38
8253;BME280;61313;48.396;10.008;2023-03-03T00:18:50;96304.56;;;4.48;63.81
8253;BME280;61313;48.396;10.008;2023-03-03T00:23:46;96294.50;;;4.71;63.75
8253;BME280;61313;48.396;10.008;2023-03-03T00:28:46;96287.09;;;4.54;63.94
8253;BME280;61313;48.396;10.008;2023-03-03T00:31:17;96294.84;;;4.56;63.45
8253;BME280;61313;48.396;10.008;2023-03-03T00:33:47;96294.00;;;4.55;63.48
8253;BME280;61313;48.396;10.008;2023-03-03T00:38:41;96301.75;;;4.57;64.00
8253;BME280;61313;48.396;10.008;2023-03-03T00:41:22;96305.22;;;4.56;63.45
8253;BME280;61313;48.396;10.008;2023-03-03T00:43:48;96305.31;;;4.53;64.16
8253;BME280;61313;48.396;10.008;2023-03-03T00:46:22;96307.03;;;4.54;64.30
8253;BME280;61313;48.396;10.008;2023-03-03T00:48:48;96302.78;;;4.50;64.07
8253;BME280;61313;48.396;10.008;2023-03-03T00:51:29;96307.03;;;4.54;63.90
8253;BME280;61313;48.396;10.008;2023-03-03T00:53:56;96304.66;;;4.43;64.59
8253;BME280;61313;48.396;10.008;2023-03-03T00:56:21;96305.19;;;4.59;64.21
8253;BME280;61313;48.396;10.008;2023-03-03T00:58:47;96305.84;;;4.69;63.33
8253;BME280;61313;48.396;10.008;2023-03-03T01:01:14;96303.25;;;4.67;63.30
8253;BME280;61313;48.396;10.008;2023-03-03T01:03:39;96309.28;;;4.69;63.83
8253;BME280;61313;48.396;10.008;2023-03-03T01:06:05;96311.06;;;4.67;63.73
8253;BME280;61313;48.396;10.008;2023-03-03T01:08:31;96303.06;;;4.76;63.69
8253;BME280;61313;48.396;10.008;2023-03-03T01:10:59;96294.59;;;4.68;63.25
8253;BME280;61313;48.396;10.008;2023-03-03T01:13:30;96299.84;;;4.65;64.05
8253;BME280;61313;48.396;10.008;2023-03-03T01:15:58;96299.84;;;4.65;63.57
8253;BME280;61313;48.396;10.008;2023-03-03T01:18:23;96303.47;;;4.58;64.03
8253;BME280;61313;48.396;10.008;2023-03-03T01:20:49;96295.50;;;4.65;64.38
8253;BME280;61313;48.396;10.008;2023-03-03T01:23:14;96297.31;;;4.62;63.88
8253;BME280;61313;48.396;10.008;2023-03-03T01:25:40;96296.66;;;4.52;64.56
8253;BME280;61313;48.396;10.008;2023-03-03T01:28:05;96296.47;;;4.61;64.26
8253;BME280;61313;48.396;10.008;2023-03-03T01:30:31;96292.31;;;4.53;64.36
8253;BME280;61313;48.396;10.008;2023-03-03T01:32:57;96298.41;;;4.52;64.36
8253;BME280;61313;48.396;10.008;2023-03-03T01:35:23;96298.41;;;4.52;64.62
8253;BME280;61313;48.396;10.008;2023-03-03T01:37:48;96306.16;;;4.53;64.30
8253;BME280;61313;48.396;10.008;2023-03-03T01:40:19;96299.94;;;4.60;64.42
8253;BME280;61313;48.396;10.008;2023-03-03T01:42:44;96297.59;;;4.48;64.39
8253;BME280;61313;48.396;10.008;2023-03-03T01:48:13;96300.84;;;4.59;64.34
8253;BME280;61313;48.396;10.008;2023-03-03T01:53:22;96292.28;;;4.54;64.66
8253;BME280;61313;48.396;10.008;2023-03-03T01:55:51;96294.00;;;4.55;64.66
8253;BME280;61313;48.396;10.008;2023-03-03T01:58:27;96286.00;;;4.63;64.56
8253;BME280;61313;48.396;10.008;2023-03-03T02:00:57;96280.81;;;4.63;64.30
8253;BME280;61313;48.396;10.008;2023-03-03T02:03:25;96278.19;;;4.64;64.41
8253;BME280;61313;48.396;10.008;2023-03-03T02:05:54;96282.63;;;4.61;64.60
8253;BME280;61313;48.396;10.008;2023-03-03T02:08:25;96285.25;;;4.59;64.31
8253;BME280;61313;48.396;10.008;2023-03-03T02:10:53;96286.91;;;4.63;64.66
8253;BME280;61313;48.396;10.008;2023-03-03T02:13:20;96278.28;;;4.61;63.86
8253;BME280;61313;48.396;10.008;2023-03-03T02:15:45;96284.13;;;4.71;64.13
8253;BME280;61313;48.396;10.008;2023-03-03T02:18:16;96275.50;;;4.69;64.32
8253;BME280;61313;48.396;10.008;2023-03-03T02:26:23;96263.44;;;4.66;63.99
8253;BME280;61313;48.396;10.008;2023-03-03T02:28:50;96261.72;;;4.65;64.38
8253;BME280;61313;48.396;10.008;2023-03-03T02:31:20;96266.09;;;4.63;64.52
8253;BME280;61313;48.396;10.008;2023-03-03T02:33:47;96264.25;;;4.69;64.57
8253;BME280;61313;48.396;10.008;2023-03-03T02:36:16;96263.22;;;4.76;63.76
8253;BME280;61313;48.396;10.008;2023-03-03T02:44:18;96260.06;;;4.61;64.37
8253;BME280;61313;48.396;10.008;2023-03-03T02:46:46;96262.84;;;4.54;64.52
8253;BME280;61313;48.396;10.008;2023-03-03T02:49:14;96264.44;;;4.61;64.42
8253;BME280;61313;48.396;10.008;2023-03-03T02:51:40;96260.16;;;4.58;64.42
8253;BME280;61313;48.396;10.008;2023-03-03T02:54:07;96268.72;;;4.62;64.58
8253;BME280;61313;48.396;10.008;2023-03-03T02:56:34;96257.31;;;4.67;64.39
8253;BME280;61313;48.396;10.008;2023-03-03T02:58:59;96256.69;;;4.58;64.30
8253;BME280;61313;48.396;10.008;2023-03-03T03:01:25;96259.22;;;4.61;64.72
8253;BME280;61313;48.396;10.008;2023-03-03T03:03:50;96252.13;;;4.67;64.22
8253;BME280;61313;48.396;10.008;2023-03-03T03:06:16;96251.44;;;4.61;64.57
8253;BME280;61313;48.396;10.008;2023-03-03T03:08:42;96252.28;;;4.61;64.52
8253;BME280;61313;48.396;10.008;2023-03-03T03:11:07;96251.53;;;4.56;64.75
8253;BME280;61313;48.396;10.008;2023-03-03T03:13:33;96244.59;;;4.57;64.41
8253;BME280;61313;48.396;10.008;2023-03-03T03:15:59;96248.88;;;4.58;64.16
8253;BME280;61313;48.396;10.008;2023-03-03T03:18:25;96246.28;;;4.58;64.46
8253;BME280;61313;48.396;10.008;2023-03-03T03:20:51;96251.38;;;4.62;64.72
8253;BME280;61313;48.396;10.008;2023-03-03T03:23:16;96253.34;;;4.53;64.56
8253;BME280;61313;48.396;10.008;2023-03-03T03:25:42;96262.06;;;4.49;64.85
8253;BME280;61313;48.396;10.008;2023-03-03T03:28:12;96263.59;;;4.59;64.41
8253;BME280;61313;48.396;10.008;2023-03-03T03:30:37;96263.63;;;4.57;65.05
8253;BME280;61313;48.396;10.008;2023-03-03T03:33:03;96263.81;;;4.50;64.75
8253;BME280;61313;48.396;10.008;2023-03-03T03:35:29;96265.50;;;4.51;64.79
8253;BME280;61313;48.396;10.008;2023-03-03T03:37:54;96270.69;;;4.52;65.19
8253;BME280;61313;48.396;10.008;2023-03-03T03:40:20;96270.66;;;4.54;65.10
8253;BME280;61313;48.396;10.008;2023-03-03T03:42:45;96268.19;;;4.48;65.02
8253;BME280;61313;48.396;10.008;2023-03-03T03:45:11;96275.31;;;4.39;65.15
8253;BME280;61313;48.396;10.008;2023-03-03T03:47:40;96273.34;;;4.49;65.16
8253;BME280;61313;48.396;10.008;2023-03-03T03:50:07;96277.66;;;4.50;65.03
8253;BME280;61313;48.396;10.008;2023-03-03T03:52:33;96273.38;;;4.48;64.30
8253;BME280;61313;48.396;10.008;2023-03-03T03:54:59;96276.06;;;4.44;65.13
8253;BME280;61313;48.396;10.008;2023-03-03T03:57:24;96270.78;;;4.46;64.94
8253;BME280;61313;48.396;10.008;2023-03-03T03:59:50;96266.50;;;4.45;64.76
8253;BME280;61313;48.396;10.008;2023-03-03T04:02:15;96271.69;;;4.47;64.78
8253;BME280;61313;48.396;10.008;2023-03-03T04:04:40;96265.56;;;4.49;65.13
8253;BME280;61313;48.396;10.008;2023-03-03T04:07:06;96268.09;;;4.51;64.43
8253;BME280;61313;48.396;10.008;2023-03-03T04:09:31;96262.13;;;4.47;64.89
8253;BME280;61313;48.396;10.008;2023-03-03T04:11:57;96270.56;;;4.58;65.10
8253;BME280;61313;48.396;10.008;2023-03-03T04:14:23;96270.56;;;4.57;64.73
8253;BME280;61313;48.396;10.008;2023-03-03T04:16:48;96267.06;;;4.58;64.28
8253;BME280;61313;48.396;10.008;2023-03-03T04:19:14;96268.81;;;4.59;64.70
8253;BME280;61313;48.396;10.008;2023-03-03T04:21:39;96272.25;;;4.59;64.27
8253;BME280;61313;48.396;10.008;2023-03-03T04:24:05;96276.34;;;4.70;63.93
8253;BME280;61313;48.396;10.008;2023-03-03T04:26:31;96270.66;;;4.54;64.87
8253;BME280;61313;48.396;10.008;2023-03-03T04:28:57;96274.94;;;4.55;64.65
8253;BME280;61313;48.396;10.008;2023-03-03T04:31:23;96279.03;;;4.66;64.40
8253;BME280;61313;48.396;10.008;2023-03-03T04:33:50;96266.34;;;4.51;64.53
8253;BME280;61313;48.396;10.008;2023-03-03T04:36:16;96270.88;;;4.43;64.59
8253;BME280;61313;48.396;10.008;2023-03-03T04:38:41;96276.81;;;4.50;64.75
8253;BME280;61313;48.396;10.008;2023-03-03T04:41:07;96270.50;;;4.60;64.46
8253;BME280;61313;48.396;10.008;2023-03-03T04:43:32;96274.97;;;4.53;65.20
8253;BME280;61313;48.396;10.008;2023-03-03T04:45:57;96277.53;;;4.55;64.78
8253;BME280;61313;48.396;10.008;2023-03-03T04:48:23;96273.25;;;4.54;65.06
8253;BME280;61313;48.396;10.008;2023-03-03T04:50:48;96277.75;;;4.45;64.74
8253;BME280;61313;48.396;10.008;2023-03-03T04:53:14;96274.22;;;4.48;65.42
8253;BME280;61313;48.396;10.008;2023-03-03T04:55:39;96274.97;;;4.53;64.87
8253;BME280;61313;48.396;10.008;2023-03-03T04:58:05;96281.09;;;4.51;65.09
8253;BME280;61313;48.396;10.008;2023-03-03T05:00:30;96278.09;;;4.69;64.79
8253;BME280;61313;48.396;10.008;2023-03-03T05:02:56;96282.44;;;4.69;64.27
8253;BME280;61313;48.396;10.008;2023-03-03T05:05:22;96289.44;;;4.65;64.37
8253;BME280;61313;48.396;10.008;2023-03-03T05:07:47;96291.16;;;4.66;64.37
8253;BME280;61313;48.396;10.008;2023-03-03T05:10:12;96291.38;;;4.57;64.80
8253;BME280;61313;48.396;10.008;2023-03-03T05:12:38;96292.91;;;4.65;64.62
8253;BME280;61313;48.396;10.008;2023-03-03T05:15:04;96292.75;;;4.73;64.59
8253;BME280;61313;48.396;10.008;2023-03-03T05:17:29;96292.00;;;4.68;64.65
8253;BME280;61313;48.396;10.008;2023-03-03T05:19:55;96287.03;;;4.57;64.41
8253;BME280;61313;48.396;10.008;2023-03-03T05:22:21;96292.81;;;4.70;64.31
8253;BME280;61313;48.396;10.008;2023-03-03T05:24:47;96291.91;;;4.71;64.19
8253;BME280;61313;48.396;10.008;2023-03-03T05:27:14;96291.34;;;4.58;64.53
8253;BME280;61313;48.396;10.008;2023-03-03T05:29:39;96289.63;;;4.56;64.67
8253;BME280;61313;48.396;10.008;2023-03-03T05:32:05;96298.25;;;4.59;64.57
8253;BME280;61313;48.396;10.008;2023-03-03T05:34:30;96302.72;;;4.51;65.05
8253;BME280;61313;48.396;10.008;2023-03-03T05:36:56;96298.25;;;4.58;65.09
8253;BME280;61313;48.396;10.008;2023-03-03T05:39:21;96306.03;;;4.59;64.92
8253;BME280;61313;48.396;10.008;2023-03-03T05:41:47;96296.28;;;4.69;64.41
8253;BME280;61313;48.396;10.008;2023-03-03T05:44:13;96312.78;;;4.68;64.02
8253;BME280;61313;48.396;10.008;2023-03-03T05:46:38;96307.44;;;4.74;64.34
8253;BME280;61313;48.396;10.008;2023-03-03T05:49:04;96305.66;;;4.76;64.16
8253;BME280;61313;48.396;10.008;2023-03-03T05:51:29;96309.91;;;4.80;64.05
8253;BME280;61313;48.396;10.008;2023-03-03T05:53:55;96307.38;;;4.77;64.06
8253;BME280;61313;48.396;10.008;2023-03-03T05:56:20;96308.44;;;4.69;64.69
8253;BME280;61313;48.396;10.008;2023-03-03T05:58:46;96310.41;;;4.57;64.79
8253;BME280;61313;48.396;10.008;2023-03-03T06:01:11;96313.03;;;4.56;64.68
8253;BME280;61313;48.396;10.008;2023-03-03T06:03:37;96317.38;;;4.55;65.31
8253;BME280;61313;48.396;10.008;2023-03-03T06:06:03;96318.22;;;4.56;65.35
8253;BME280;61313;48.396;10.008;2023-03-03T06:08:28;96319.69;;;4.69;64.49
8253;BME280;61313;48.396;10.008;2023-03-03T06:10:56;96325.88;;;4.63;64.73
8253;BME280;61313;48.396;10.008;2023-03-03T06:13:21;96329.31;;;4.64;64.92
8253;BME280;61313;48.396;10.008;2023-03-03T06:15:47;96333.22;;;4.43;65.45
8253;BME280;61313;48.396;10.008;2023-03-03T06:18:12;96334.91;;;4.45;64.92
8253;BME280;61313;48.396;10.008;2023-03-03T06:20:38;96332.09;;;4.56;64.84
8253;BME280;61313;48.396;10.008;2023-03-03T06:23:04;96333.63;;;4.65;64.38
8253;BME280;61313;48.396;10.008;2023-03-03T06:25:30;96333.03;;;4.54;64.81
8253;BME280;61313;48.396;10.008;2023-03-03T06:27:55;96332.94;;;4.58;65.05
8253;BME280;61313;48.396;10.008;2023-03-03T06:30:21;96332.09;;;4.56;65.15
8253;BME280;61313;48.396;10.008;2023-03-03T06:32:46;96342.34;;;4.62;64.69
8253;BME280;61313;48.396;10.008;2023-03-03T06:35:12;96344.91;;;4.64;64.67
8253;BME280;61313;48.396;10.008;2023-03-03T06:37:37;96345.44;;;4.80;64.74
8253;BME280;61313;48.396;10.008;2023-03-03T06:40:04;96345.69;;;4.67;64.83
8253;BME280;61313;48.396;10.008;2023-03-03T06:42:29;96355.22;;;4.69;65.36
8253;BME280;61313;48.396;10.008;2023-03-03T06:44:55;96358.47;;;4.78;64.98
8253;BME280;61313;48.396;10.008;2023-03-03T06:47:20;96356.28;;;4.99;64.45
8253;BME280;61313;48.396;10.008;2023-03-03T06:49:46;96361.69;;;4.90;64.36
8253;BME280;61313;48.396;10.008;2023-03-03T06:52:14;96362.81;;;4.78;64.72
8253;BME280;61313;48.396;10.008;2023-03-03T06:54:42;96368.03;;;4.78;64.72
8253;BME280;61313;48.396;10.008;2023-03-03T07:00:22;96368.19;;;4.70;64.90
8253;BME280;61313;48.396;10.008;2023-03-03T07:03:18;96374.47;;;4.60;65.48
8253;BME280;61313;48.396;10.008;2023-03-03T07:05:46;96377.63;;;4.74;64.85
8253;BME280;61313;48.396;10.008;2023-03-03T07:08:16;96380.94;;;4.39;66.27
8253;BME280;61313;48.396;10.008;2023-03-03T07:10:42;96380.50;;;4.60;65.82
8253;BME280;61313;48.396;10.008;2023-03-03T07:13:25;96381.03;;;4.76;64.75
8253;BME280;61313;48.396;10.008;2023-03-03T07:15:55;96387.28;;;4.67;65.45
8253;BME280;61313;48.396;10.008;2023-03-03T07:20:51;96382.03;;;4.71;64.88
8253;BME280;61313;48.396;10.008;2023-03-03T07:23:29;96387.81;;;4.83;65.00
8253;BME280;61313;48.396;10.008;2023-03-03T07:25:57;96381.91;;;4.77;64.25
8253;BME280;61313;48.396;10.008;2023-03-03T07:28:23;96386.97;;;4.83;64.85
8253;BME280;61313;48.396;10.008;2023-03-03T07:30:50;96394.03;;;4.78;64.81
8253;BME280;61313;48.396;10.008;2023-03-03T07:33:35;96392.78;;;5.69;77.38
8253;BME280;61313;48.396;10.008;2023-03-03T07:36:17;96395.25;;;5.00;64.40
8253;BME280;61313;48.396;10.008;2023-03-03T07:38:54;96394.13;;;4.73;64.70
8253;BME280;61313;48.396;10.008;2023-03-03T07:41:21;96381.09;;;5.85;72.74
8253;BME280;61313;48.396;10.008;2023-03-03T07:46:35;96399.94;;;5.61;62.44
8253;BME280;61313;48.396;10.008;2023-03-03T07:49:15;96400.78;;;5.25;63.30
8253;BME280;61313;48.396;10.008;2023-03-03T07:51:44;96395.78;;;5.16;63.72
8253;BME280;61313;48.396;10.008;2023-03-03T07:54:38;96398.47;;;5.12;63.82
8253;BME280;61313;48.396;10.008;2023-03-03T07:57:18;96391.56;;;5.11;64.07
8253;BME280;61313;48.396;10.008;2023-03-03T08:02:44;96397.81;;;5.03;63.46
8253;BME280;61313;48.396;10.008;2023-03-03T08:05:35;96399.69;;;4.97;63.87
8253;BME280;61313;48.396;10.008;2023-03-03T08:10:55;96408.06;;;5.09;63.94
8253;BME280;61313;48.396;10.008;2023-03-03T08:13:22;96411.56;;;5.08;63.91
8253;BME280;61313;48.396;10.008;2023-03-03T08:15:51;96405.16;;;5.22;63.65
8253;BME280;61313;48.396;10.008;2023-03-03T08:18:27;96407.19;;;5.11;63.51
8253;BME280;61313;48.396;10.008;2023-03-03T08:20:59;96404.59;;;5.11;64.06
8253;BME280;61313;48.396;10.008;2023-03-03T08:23:25;96404.47;;;4.75;64.95
8253;BME280;61313;48.396;10.008;2023-03-03T08:25:51;96410.19;;;4.49;65.58
8253;BME280;61313;48.396;10.008;2023-03-03T08:28:18;96413.19;;;4.72;65.33
8253;BME280;61313;48.396;10.008;2023-03-03T08:30:45;96419.94;;;4.82;65.27
8253;BME280;61313;48.396;10.008;2023-03-03T08:33:12;96423.94;;;4.97;64.73
8253;BME280;61313;48.396;10.008;2023-03-03T08:35:38;96419.22;;;4.74;65.25
8253;BME280;61313;48.396;10.008;2023-03-03T08:38:04;96420.59;;;4.92;64.94
8253;BME280;61313;48.396;10.008;2023-03-03T08:40:31;96413.91;;;4.80;65.08
8253;BME280;61313;48.396;10.008;2023-03-03T08:42:56;96410.34;;;4.84;64.78
8253;BME280;61313;48.396;10.008;2023-03-03T08:45:23;96406.38;;;5.07;64.43
8253;BME280;61313;48.396;10.008;2023-03-03T08:47:48;96417.06;;;4.95;65.08
8253;BME280;61313;48.396;10.008;2023-03-03T08:50:14;96417.72;;;5.03;64.76
8253;BME280;61313;48.396;10.008;2023-03-03T08:52:40;96419.28;;;5.12;63.76
8253;BME280;61313;48.396;10.008;2023-03-03T08:55:06;96420.03;;;4.78;64.64
8253;BME280;61313;48.396;10.008;2023-03-03T08:57:31;96419.03;;;4.83;64.94
8253;BME280;61313;48.396;10.008;2023-03-03T08:59:57;96420.88;;;4.77;64.98
8253;BME280;61313;48.396;10.008;2023-03-03T09:02:22;96415.47;;;4.89;64.41
8253;BME280;61313;48.396;10.008;2023-03-03T09:04:47;96417.81;;;5.00;64.61
8253;BME280;61313;48.396;10.008;2023-03-03T09:07:13;96424.09;;;5.28;63.56
8253;BME280;61313;48.396;10.008;2023-03-03T09:09:38;96422.94;;;5.42;62.73
8253;BME280;61313;48.396;10.008;2023-03-03T09:12:28;96419.34;;;5.47;62.67
8253;BME280;61313;48.396;10.008;2023-03-03T09:14:57;96414.94;;;5.49;62.22
8253;BME280;61313;48.396;10.008;2023-03-03T09:17:25;96414.84;;;5.54;62.39
8253;BME280;61313;48.396;10.008;2023-03-03T09:19:51;96431.69;;;5.77;61.83
8253;BME280;61313;48.396;10.008;2023-03-03T09:22:23;96428.06;;;5.81;61.58
8253;BME280;61313;48.396;10.008;2023-03-03T09:24:52;96434.22;;;5.78;61.43
8253;BME280;61313;48.396;10.008;2023-03-03T09:27:33;96439.94;;;5.92;61.40
8253;BME280;61313;48.396;10.008;2023-03-03T09:32:51;96439.06;;;5.93;60.65
8253;BME280;61313;48.396;10.008;2023-03-03T09:35:34;96440.81;;;5.93;60.74
8253;BME280;61313;48.396;10.008;2023-03-03T09:38:04;96443.56;;;5.87;61.17
8253;BME280;61313;48.396;10.008;2023-03-03T09:43:11;96445.75;;;6.05;61.31
8253;BME280;61313;48.396;10.008;2023-03-03T09:45:48;96455.06;;;6.14;60.54
8253;BME280;61313;48.396;10.008;2023-03-03T09:52:25;96450.13;;;6.03;60.96
8253;BME280;61313;48.396;10.008;2023-03-03T09:57:15;96447.69;;;6.31;60.05
8253;BME280;61313;48.396;10.008;2023-03-03T10:10:47;96452.44;;;6.48;59.11
8253;BME280;61313;48.396;10.008;2023-03-03T10:13:39;96445.31;;;6.55;59.14
8253;BME280;61313;48.396;10.008;2023-03-03T10:21:49;96451.13;;;6.65;58.49
8253;BME280;61313;48.396;10.008;2023-03-03T10:24:28;96442.13;;;6.75;58.41
8253;BME280;61313;48.396;10.008;2023-03-03T10:30:12;96454.75;;;6.90;57.90
8253;BME280;61313;48.396;10.008;2023-03-03T10:38:49;96459.19;;;6.87;57.78
8253;BME280;61313;48.396;10.008;2023-03-03T10:41:32;96467.81;;;6.90;57.25
8253;BME280;61313;48.396;10.008;2023-03-03T10:52:35;96474.97;;;6.82;55.99
8253;BME280;61313;48.396;10.008;2023-03-03T11:00:55;96463.66;;;7.13;54.85
8253;BME280;61313;48.396;10.008;2023-03-03T11:06:24;96462.84;;;7.11;53.90
8253;BME280;61313;48.396;10.008;2023-03-03T11:09:02;96468.66;;;6.91;54.50
8253;BME280;61313;48.396;10.008;2023-03-03T11:14:38;96462.59;;;6.90;54.14
8253;BME280;61313;48.396;10.008;2023-03-03T11:17:37;96457.56;;;6.51;55.67
8253;BME280;61313;48.396;10.008;2023-03-03T11:20:33;96452.06;;;6.62;55.58
8253;BME280;61313;48.396;10.008;2023-03-03T11:28:55;96458.19;;;7.22;54.31
8253;BME280;61313;48.396;10.008;2023-03-03T11:34:21;96451.84;;;6.70;56.10
8253;BME280;61313;48.396;10.008;2023-03-03T11:36:56;96458.81;;;7.00;55.35
8253;BME280;61313;48.396;10.008;2023-03-03T11:39:25;96449.59;;;7.18;54.98
8253;BME280;61313;48.396;10.008;2023-03-03T11:42:23;96457.50;;;7.15;55.28
8253;BME280;61313;48.396;10.008;2023-03-03T11:44:56;96454.19;;;7.10;55.07
8253;BME280;61313;48.396;10.008;2023-03-03T11:47:37;96446.78;;;6.64;56.48
8253;BME280;61313;48.396;10.008;2023-03-03T11:50:13;96453.44;;;7.07;55.62
8253;BME280;61313;48.396;10.008;2023-03-03T11:52:54;96449.09;;;7.35;54.54
8253;BME280;61313;48.396;10.008;2023-03-03T11:55:32;96449.22;;;7.59;54.89
8253;BME280;61313;48.396;10.008;2023-03-03T11:58:22;96440.88;;;7.48;54.39
8253;BME280;61313;48.396;10.008;2023-03-03T12:03:39;96433.44;;;7.35;54.62
8253;BME280;61313;48.396;10.008;2023-03-03T12:12:21;96429.56;;;7.75;53.43
8253;BME280;61313;48.396;10.008;2023-03-03T12:29:32;96423.31;;;8.06;53.38
8253;BME280;61313;48.396;10.008;2023-03-03T12:40:19;96422.56;;;8.54;51.43
8253;BME280;61313;48.396;10.008;2023-03-03T12:45:48;96418.41;;;8.48;51.14
8253;BME280;61313;48.396;10.008;2023-03-03T12:48:33;96408.00;;;8.47;50.63
8253;BME280;61313;48.396;10.008;2023-03-03T12:59:15;96398.25;;;8.99;49.73
8253;BME280;61313;48.396;10.008;2023-03-03T13:04:35;96389.94;;;8.88;49.48
8253;BME280;61313;48.396;10.008;2023-03-03T13:07:12;96394.59;;;9.03;49.00
8253;BME280;61313;48.396;10.008;2023-03-03T13:15:27;96396.97;;;9.33;48.76
8253;BME280;61313;48.396;10.008;2023-03-03T13:21:07;96397.81;;;9.33;48.91
8253;BME280;61313;48.396;10.008;2023-03-03T13:26:37;96394.81;;;8.97;49.57
8253;BME280;61313;48.396;10.008;2023-03-03T13:29:12;96387.22;;;8.91;49.53
8253;BME280;61313;48.396;10.008;2023-03-03T13:31:47;96406.22;;;8.73;49.56
8253;BME280;61313;48.396;10.008;2023-03-03T13:39:39;96390.63;;;8.46;50.52
8253;BME280;61313;48.396;10.008;2023-03-03T13:45:16;96388.91;;;8.92;49.97
8253;BME280;61313;48.396;10.008;2023-03-03T13:47:52;96382.81;;;9.15;49.64
8253;BME280;61313;48.396;10.008;2023-03-03T13:50:37;96375.81;;;9.16;49.38
8253;BME280;61313;48.396;10.008;2023-03-03T13:55:55;96375.19;;;9.09;49.78
8253;BME280;61313;48.396;10.008;2023-03-03T13:58:40;96378.25;;;9.20;49.15
8253;BME280;61313;48.396;10.008;2023-03-03T14:01:15;96373.81;;;9.22;48.97
8253;BME280;61313;48.396;10.008;2023-03-03T14:06:21;96368.88;;;9.37;48.59
8253;BME280;61313;48.396;10.008;2023-03-03T14:17:28;96347.25;;;9.31;49.60
8253;BME280;61313;48.396;10.008;2023-03-03T14:23:01;96341.00;;;8.90;49.26
8253;BME280;61313;48.396;10.008;2023-03-03T14:25:57;96344.91;;;8.80;50.30
8253;BME280;61313;48.396;10.008;2023-03-03T14:28:26;96343.94;;;9.04;49.62
8253;BME280;61313;48.396;10.008;2023-03-03T14:30:56;96340.44;;;9.05;49.41
8253;BME280;61313;48.396;10.008;2023-03-03T14:33:27;96341.09;;;9.10;49.19
8253;BME280;61313;48.396;10.008;2023-03-03T14:38:44;96344.97;;;9.24;48.33
8253;BME280;61313;48.396;10.008;2023-03-03T14:48:51;96334.34;;;9.49;48.11
8253;BME280;61313;48.396;10.008;2023-03-03T14:51:30;96336.53;;;9.38;48.39
8253;BME280;61313;48.396;10.008;2023-03-03T14:53:57;96340.03;;;9.38;48.83
8253;BME280;61313;48.396;10.008;2023-03-03T14:56:29;96338.78;;;9.25;49.08
8253;BME280;61313;48.396;10.008;2023-03-03T14:59:16;96338.44;;;9.34;49.39
8253;BME280;61313;48.396;10.008;2023-03-03T15:01:43;96339.59;;;9.27;50.13
8253;BME280;61313;48.396;10.008;2023-03-03T15:06:45;96337.91;;;9.02;50.71
8253;BME280;61313;48.396;10.008;2023-03-03T15:09:32;96339.19;;;8.92;50.10
8253;BME280;61313;48.396;10.008;2023-03-03T15:12:23;96338.16;;;8.96;50.88
8253;BME280;61313;48.396;10.008;2023-03-03T15:20:30;96339.44;;;8.86;50.29
8253;BME280;61313;48.396;10.008;2023-03-03T15:26:01;96348.13;;;9.10;49.60
8253;BME280;61313;48.396;10.008;2023-03-03T15:42:13;96339.06;;;8.95;50.46
8253;BME280;61313;48.396;10.008;2023-03-03T15:44:47;96345.22;;;8.94;49.72
8253;BME280;61313;48.396;10.008;2023-03-03T15:47:26;96339.53;;;8.83;50.52
8253;BME280;61313;48.396;10.008;2023-03-03T15:50:25;96334.09;;;8.89;49.47
8253;BME280;61313;48.396;10.008;2023-03-03T15:53:23;96338.72;;;9.04;49.73
8253;BME280;61313;48.396;10.008;2023-03-03T16:01:28;96335.50;;;8.98;49.49
8253;BME280;61313;48.396;10.008;2023-03-03T16:04:08;96342.72;;;8.91;50.02
8253;BME280;61313;48.396;10.008;2023-03-03T16:09:50;96344.78;;;8.83;49.49
8253;BME280;61313;48.396;10.008;2023-03-03T16:12:33;96349.78;;;8.89;49.65
8253;BME280;61313;48.396;10.008;2023-03-03T16:20:55;96352.00;;;8.76;49.72
8253;BME280;61313;48.396;10.008;2023-03-03T16:31:35;96355.19;;;8.61;50.99
8253;BME280;61313;48.396;10.008;2023-03-03T16:42:02;96374.25;;;8.39;51.44
8253;BME280;61313;48.396;10.008;2023-03-03T16:44:48;96377.63;;;8.43;51.32
8253;BME280;61313;48.396;10.008;2023-03-03T16:55:35;96391.28;;;8.51;51.55
8253;BME280;61313;48.396;10.008;2023-03-03T17:06:44;96406.59;;;8.37;52.61
8253;BME280;61313;48.396;10.008;2023-03-03T17:12:18;96410.66;;;8.20;52.77
8253;BME280;61313;48.396;10.008;2023-03-03T17:17:43;96416.88;;;8.16;52.78
8253;BME280;61313;48.396;10.008;2023-03-03T17:20:50;96417.41;;;8.01;52.58
8253;BME280;61313;48.396;10.008;2023-03-03T17:23:41;96427.91;;;7.99;52.75
8253;BME280;61313;48.396;10.008;2023-03-03T17:26:18;96424.53;;;8.22;51.15
8253;BME280;61313;48.396;10.008;2023-03-03T17:32:06;96432.59;;;7.90;52.36
8253;BME280;61313;48.396;10.008;2023-03-03T17:34:53;96441.06;;;7.96;52.76
8253;BME280;61313;48.396;10.008;2023-03-03T17:42:42;96451.56;;;7.95;52.65
8253;BME280;61313;48.396;10.008;2023-03-03T17:45:16;96447.25;;;7.94;52.20
8253;BME280;61313;48.396;10.008;2023-03-03T17:51:04;96453.41;;;7.91;52.36
8253;BME280;61313;48.396;10.008;2023-03-03T18:20:54;96471.81;;;7.60;52.24
8253;BME280;61313;48.396;10.008;2023-03-03T18:28:46;96484.78;;;7.35;52.81
8253;BME280;61313;48.396;10.008;2023-03-03T18:31:24;96481.38;;;7.33;52.48
8253;BME280;61313;48.396;10.008;2023-03-03T18:34:09;96478.47;;;7.42;52.71
8253;BME280;61313;48.396;10.008;2023-03-03T18:36:57;96481.09;;;7.42;52.37
8253;BME280;61313;48.396;10.008;2023-03-03T18:42:08;96487.34;;;7.36;52.77
8253;BME280;61313;48.396;10.008;2023-03-03T18:44:34;96495.13;;;7.38;52.65
8253;BME280;61313;48.396;10.008;2023-03-03T18:47:00;96491.72;;;7.36;52.88
8253;BME280;61313;48.396;10.008;2023-03-03T18:49:50;96499.50;;;7.37;52.35
8253;BME280;61313;48.396;10.008;2023-03-03T18:52:18;96494.28;;;7.37;52.76
8253;BME280;61313;48.396;10.008;2023-03-03T18:57:36;96506.72;;;6.98;53.56